Redmond, OR (97756)

9:07 AM PST on February 10, 2016 (GMT -0800)
Antler and 27th Street | | Change Station
CLOSE
Current Station
Personal Weather Station
Location: Redmond, OR
Elevation: 2999 ft
Nearby Weather Stations

Elev 2999 ft 44.28 °N, 121.20 °W | Updated 2 minutes ago

Clear
Clear
43.2 °F
Feels Like 43 °F
N
0.0
Wind Variable Wind from North
Gusts 0.0 mph

Today
High -- | Low -- °F
--% Chance of Precip.
Yesterday
High -- | Low -- °F
Precip. -- in
Pressure 30.31 in
Visibility 10.0 miles
Clouds Clear
Windchill 43 °F
Dew Point 32 °F
Humidity 38%
Rainfall 0.00 in
Snow Depth Not available.
7:12 AM 5:26 PM
Waxing Crescent, 6% visible
METAR KRDM 101656Z 09008KT 10SM CLR 07/00 A3027 RMK AO2 SLP263 T00670000
Pressure 30.31 in
Visibility 10.0 miles
Clouds Clear
Windchill 43 °F
Dew Point 32 °F
Humidity 38%
Rainfall 0.00 in
Snow Depth Not available.
7:12 AM 5:26 PM
Waxing Crescent, 6% visible
METAR KRDM 101656Z 09008KT 10SM CLR 07/00 A3027 RMK AO2 SLP263 T00670000

10-Day Weather Forecast

Almanac

Astronomy

Feb. 10, 2016 Rise Set
Actual Time
Civil Twilight
Nautical Twilight
Astronomical Twilight
Moon
Length of Visible Light
Length of Day
Tomorrow will be .
, % of the Moon is Illuminated

Today's Extremes

State Highs State Lows

Community

WunderPhotos

Upload Photos

1,891,892 photos uploaded!

WunderBlog® & News

Nearby

Air Quality

  Air Quality AQ Index Pollutant
Not available.

Snow Depth

Station Depth Elevation

Earthquake Activity

City Distance Mag. Time & Date
Minimum magnitude displayed is 2.5.

Coastal Water Temperatures

Place Temperature

Stations

Nearby Weather Stations

Station Location Temp. Windchill Dew Point Humidity Wind Precip. Elev Updated Type
                   

Watches & Warnings

There are currently no watches in effect.